createdAt,value
2022-08-27T00:00:22.360Z,0.00
2022-08-27T00:00:57.705Z,0.00
2022-08-27T00:01:32.970Z,0.00
2022-08-27T00:02:08.118Z,0.00
2022-08-27T00:02:43.212Z,0.00
2022-08-27T00:03:18.316Z,0.00
2022-08-27T00:03:54.066Z,0.00
2022-08-27T00:04:29.630Z,0.00
2022-08-27T00:05:05.137Z,0.00
2022-08-27T00:05:40.713Z,0.00
2022-08-27T00:06:15.826Z,0.00
2022-08-27T00:06:51.223Z,0.00
2022-08-27T00:07:26.343Z,0.00
2022-08-27T00:08:01.645Z,0.00
2022-08-27T00:08:36.853Z,0.00
2022-08-27T00:09:12.045Z,0.00
2022-08-27T00:09:47.553Z,0.00
2022-08-27T00:10:23.169Z,0.00
2022-08-27T00:10:58.577Z,0.00
2022-08-27T00:11:33.659Z,0.00
2022-08-27T00:12:08.883Z,0.00
2022-08-27T00:12:44.459Z,0.00
2022-08-27T00:13:19.643Z,0.00
2022-08-27T00:13:54.967Z,0.00
2022-08-27T00:14:30.329Z,0.00
2022-08-27T00:15:05.912Z,0.00
2022-08-27T00:15:41.232Z,0.00
2022-08-27T00:16:16.760Z,0.00
2022-08-27T00:16:51.952Z,0.00
2022-08-27T00:17:27.113Z,0.00
2022-08-27T00:18:02.531Z,0.00
2022-08-27T00:18:37.946Z,0.00
2022-08-27T00:19:13.081Z,0.00
2022-08-27T00:19:48.413Z,0.00
2022-08-27T00:20:23.524Z,0.00
2022-08-27T00:20:59.071Z,0.00
2022-08-27T00:21:34.062Z,0.00
2022-08-27T00:22:09.068Z,0.00
2022-08-27T00:22:44.297Z,0.00
2022-08-27T00:23:19.416Z,0.00
2022-08-27T00:23:54.826Z,0.00
2022-08-27T00:24:30.229Z,0.00
2022-08-27T00:25:05.360Z,0.00
2022-08-27T00:25:40.681Z,0.00
2022-08-27T00:26:15.988Z,0.00
2022-08-27T00:26:51.340Z,0.00
2022-08-27T00:27:26.997Z,0.00
2022-08-27T00:28:02.307Z,0.00
2022-08-27T00:28:37.613Z,0.00
2022-08-27T00:29:13.028Z,0.00
2022-08-27T00:29:48.346Z,0.00
2022-08-27T00:30:23.680Z,0.00
2022-08-27T00:30:58.815Z,0.00
2022-08-27T00:31:33.977Z,0.00
2022-08-27T00:32:09.270Z,0.00
2022-08-27T00:32:44.479Z,0.00
2022-08-27T00:33:19.691Z,0.00
2022-08-27T00:33:54.825Z,0.00
2022-08-27T00:34:29.867Z,0.00
2022-08-27T00:35:05.212Z,0.00
2022-08-27T00:35:40.543Z,0.00
2022-08-27T00:36:16.393Z,0.00
2022-08-27T00:36:51.540Z,0.00
2022-08-27T00:37:26.651Z,0.00
2022-08-27T00:38:01.926Z,0.00
2022-08-27T00:38:36.922Z,0.00
2022-08-27T00:39:12.419Z,0.00
2022-08-27T00:39:47.636Z,0.00
2022-08-27T00:40:22.900Z,0.00
2022-08-27T00:40:58.366Z,0.00
2022-08-27T00:41:33.721Z,0.00
2022-08-27T00:42:09.424Z,0.00
2022-08-27T00:42:45.044Z,0.00
2022-08-27T00:43:20.342Z,0.00
2022-08-27T00:43:55.685Z,0.00
2022-08-27T00:44:31.078Z,0.00
2022-08-27T00:45:06.364Z,0.00
2022-08-27T00:45:41.517Z,0.00
2022-08-27T00:46:16.555Z,0.00
2022-08-27T00:46:51.908Z,0.00
2022-08-27T00:47:27.039Z,0.00
2022-08-27T00:48:02.274Z,0.00
2022-08-27T00:48:37.467Z,0.00
2022-08-27T00:49:12.671Z,0.00
2022-08-27T00:49:47.690Z,0.00
2022-08-27T00:50:22.885Z,0.00
2022-08-27T00:50:58.214Z,0.00
2022-08-27T00:51:33.605Z,0.00
2022-08-27T00:52:08.905Z,0.00
2022-08-27T00:52:44.434Z,0.00
2022-08-27T00:53:19.761Z,0.00
2022-08-27T00:53:55.103Z,0.00
2022-08-27T00:54:30.605Z,0.00
2022-08-27T00:55:05.757Z,0.00
2022-08-27T00:55:41.497Z,0.00
2022-08-27T00:56:16.796Z,0.00
2022-08-27T00:56:52.087Z,0.00
2022-08-27T00:57:27.693Z,0.00
2022-08-27T00:58:03.253Z,0.00
2022-08-27T00:58:38.135Z,0.00
2022-08-27T00:59:13.152Z,0.00
2022-08-27T00:59:48.407Z,0.00
2022-08-27T01:00:23.522Z,0.00
2022-08-27T01:00:58.808Z,0.00
2022-08-27T01:01:35.889Z,0.00
2022-08-27T01:02:09.806Z,0.00
2022-08-27T01:02:44.988Z,0.00
2022-08-27T01:03:20.815Z,0.00
2022-08-27T01:03:56.309Z,0.00
2022-08-27T01:04:31.531Z,0.00
2022-08-27T01:05:06.867Z,0.00
2022-08-27T01:05:42.371Z,0.00
2022-08-27T01:06:17.439Z,0.00
2022-08-27T01:06:52.593Z,0.00
2022-08-27T01:07:28.734Z,0.00
2022-08-27T01:08:02.696Z,0.00
2022-08-27T01:08:37.705Z,0.00
2022-08-27T01:09:12.943Z,0.00
2022-08-27T01:09:48.072Z,0.00
2022-08-27T01:10:23.383Z,0.00
2022-08-27T01:10:59.068Z,0.00
2022-08-27T01:11:34.270Z,0.00
2022-08-27T01:12:09.395Z,0.00
2022-08-27T01:12:44.425Z,0.00
2022-08-27T01:13:19.609Z,0.00
2022-08-27T01:14:00.114Z,0.00
2022-08-27T01:14:30.546Z,0.00
2022-08-27T01:15:05.690Z,0.00
2022-08-27T01:15:40.926Z,0.00
2022-08-27T01:16:16.016Z,0.00
2022-08-27T01:16:51.286Z,0.00
2022-08-27T01:17:26.802Z,0.00
2022-08-27T01:18:02.010Z,0.00
2022-08-27T01:18:37.170Z,0.00
2022-08-27T01:19:12.302Z,0.00
2022-08-27T01:19:47.867Z,0.00
2022-08-27T01:20:23.165Z,0.00
2022-08-27T01:20:58.276Z,0.00
2022-08-27T01:21:33.416Z,0.00
2022-08-27T01:22:08.534Z,0.00
2022-08-27T01:22:43.527Z,0.00
2022-08-27T01:23:18.752Z,0.00
2022-08-27T01:23:54.146Z,0.00
2022-08-27T01:24:29.450Z,0.00
2022-08-27T01:25:04.493Z,0.00
2022-08-27T01:25:39.821Z,0.00
2022-08-27T01:26:15.154Z,0.00
2022-08-27T01:26:50.183Z,0.00
2022-08-27T01:27:25.227Z,0.00
2022-08-27T01:28:00.242Z,0.00
2022-08-27T01:28:37.465Z,0.00
2022-08-27T01:29:11.075Z,0.00
2022-08-27T01:29:46.279Z,0.00
2022-08-27T01:30:21.478Z,0.00
2022-08-27T01:30:56.703Z,0.00
2022-08-27T01:31:32.108Z,0.00
2022-08-27T01:32:07.338Z,0.00
2022-08-27T01:32:42.556Z,0.00
2022-08-27T01:33:17.747Z,0.00
2022-08-27T01:33:53.151Z,0.00
2022-08-27T01:34:28.176Z,0.00
2022-08-27T01:35:03.188Z,0.00
2022-08-27T01:35:40.076Z,0.00
2022-08-27T01:36:13.813Z,0.00
2022-08-27T01:36:49.243Z,0.00
2022-08-27T01:37:24.305Z,0.00
2022-08-27T01:37:59.659Z,0.00
2022-08-27T01:38:35.086Z,0.00
2022-08-27T01:39:10.219Z,0.00
2022-08-27T01:39:45.236Z,0.00
2022-08-27T01:40:20.876Z,0.00
2022-08-27T01:40:56.050Z,0.00
2022-08-27T01:41:31.354Z,0.00
2022-08-27T01:42:06.761Z,0.00
2022-08-27T01:42:42.066Z,0.00
2022-08-27T01:43:17.564Z,0.00
2022-08-27T01:43:52.710Z,0.00
2022-08-27T01:44:28.040Z,0.00
2022-08-27T01:45:03.716Z,0.00
2022-08-27T01:45:38.735Z,0.00
2022-08-27T01:46:13.986Z,0.00
2022-08-27T01:46:49.014Z,0.00
2022-08-27T01:47:24.268Z,0.00
2022-08-27T01:47:59.697Z,0.00
2022-08-27T01:48:34.993Z,0.00
2022-08-27T01:49:10.014Z,0.00
2022-08-27T01:49:45.341Z,0.00
2022-08-27T01:50:20.747Z,0.00
2022-08-27T01:50:56.260Z,0.00
2022-08-27T01:51:31.595Z,0.00
2022-08-27T01:52:07.097Z,0.00
2022-08-27T01:52:42.435Z,0.00
2022-08-27T01:53:17.548Z,0.00
2022-08-27T01:53:52.868Z,0.00
2022-08-27T01:54:28.062Z,0.00
2022-08-27T01:55:03.102Z,0.00
2022-08-27T01:55:38.192Z,0.00
2022-08-27T01:56:13.097Z,0.00
2022-08-27T01:56:48.824Z,0.00
2022-08-27T01:57:26.043Z,0.00
2022-08-27T01:57:59.283Z,0.00
2022-08-27T01:58:34.277Z,0.00
2022-08-27T01:59:09.404Z,0.00
2022-08-27T01:59:44.728Z,0.00
2022-08-27T02:00:19.953Z,0.00
2022-08-27T02:00:56.625Z,0.00
2022-08-27T02:01:30.638Z,0.00
2022-08-27T02:02:06.003Z,0.00
2022-08-27T02:02:41.137Z,0.00
2022-08-27T02:03:16.487Z,0.00
2022-08-27T02:03:51.698Z,0.00
2022-08-27T02:04:26.896Z,0.00
2022-08-27T02:05:02.410Z,0.00
2022-08-27T02:05:39.487Z,0.00
2022-08-27T02:06:13.060Z,0.00
2022-08-27T02:06:48.561Z,0.00
2022-08-27T02:07:23.660Z,0.00
2022-08-27T02:07:58.867Z,0.00
2022-08-27T02:08:33.880Z,0.00
2022-08-27T02:09:09.219Z,0.00
2022-08-27T02:09:44.470Z,0.00
2022-08-27T02:10:19.708Z,0.00
2022-08-27T02:10:55.196Z,0.00
2022-08-27T02:11:30.360Z,0.00
2022-08-27T02:12:05.746Z,0.00
2022-08-27T02:12:41.127Z,0.00
2022-08-27T02:13:16.049Z,0.00
2022-08-27T02:13:51.664Z,0.00
2022-08-27T02:14:26.890Z,0.00
2022-08-27T02:15:02.120Z,0.00
2022-08-27T02:15:37.361Z,0.00
2022-08-27T02:16:12.720Z,0.00
2022-08-27T02:16:52.048Z,0.00
2022-08-27T02:17:23.115Z,0.00
2022-08-27T02:17:58.369Z,0.00
2022-08-27T02:18:33.376Z,0.00
2022-08-27T02:19:09.839Z,0.00
2022-08-27T02:19:43.866Z,0.00
2022-08-27T02:20:19.213Z,0.00
2022-08-27T02:20:54.613Z,0.00
2022-08-27T02:21:30.140Z,0.00
2022-08-27T02:22:05.380Z,0.00
2022-08-27T02:22:40.700Z,0.00
2022-08-27T02:23:15.952Z,0.00
2022-08-27T02:23:51.070Z,0.00
2022-08-27T02:24:26.304Z,0.00
2022-08-27T02:25:01.644Z,0.00
2022-08-27T02:25:37.141Z,0.00
2022-08-27T02:26:12.771Z,0.00
2022-08-27T02:26:48.088Z,0.00
2022-08-27T02:27:23.802Z,0.00
2022-08-27T02:27:59.369Z,0.00
2022-08-27T02:28:34.573Z,0.00
2022-08-27T02:29:09.878Z,0.00
2022-08-27T02:29:44.987Z,0.00
2022-08-27T02:30:20.034Z,0.00
2022-08-27T02:30:55.420Z,0.00
2022-08-27T02:31:30.808Z,0.00
2022-08-27T02:32:06.010Z,0.00
2022-08-27T02:32:41.095Z,0.00
2022-08-27T02:33:16.512Z,0.00
2022-08-27T02:33:51.842Z,0.00
2022-08-27T02:34:26.840Z,0.00
2022-08-27T02:35:02.047Z,0.00
2022-08-27T02:35:37.179Z,0.00
2022-08-27T02:36:12.501Z,0.00
2022-08-27T02:36:47.844Z,0.00
2022-08-27T02:37:23.171Z,0.00
2022-08-27T02:37:58.390Z,0.00
2022-08-27T02:38:33.982Z,0.00
2022-08-27T02:39:09.310Z,0.00
2022-08-27T02:39:46.095Z,0.00
2022-08-27T02:40:19.639Z,0.00
2022-08-27T02:40:54.627Z,0.00
2022-08-27T02:41:30.163Z,0.00
2022-08-27T02:42:05.892Z,0.00
2022-08-27T02:42:40.899Z,0.00
2022-08-27T02:43:16.315Z,0.00
2022-08-27T02:43:51.441Z,0.00
2022-08-27T02:44:26.654Z,0.00
2022-08-27T02:45:01.777Z,0.00
2022-08-27T02:45:37.021Z,0.00
2022-08-27T02:46:12.116Z,0.00
2022-08-27T02:46:47.293Z,0.00
2022-08-27T02:47:22.550Z,0.00
2022-08-27T02:47:58.000Z,0.00
2022-08-27T02:48:33.237Z,0.00
2022-08-27T02:49:08.498Z,0.00
2022-08-27T02:49:44.057Z,0.00
2022-08-27T02:50:19.330Z,0.00
2022-08-27T02:50:54.504Z,0.00
2022-08-27T02:51:29.701Z,0.00
2022-08-27T02:52:04.918Z,0.00
2022-08-27T02:52:40.102Z,0.00
2022-08-27T02:53:15.642Z,0.00
2022-08-27T02:53:50.939Z,0.00
2022-08-27T02:54:26.239Z,0.00
2022-08-27T02:55:01.365Z,0.00
2022-08-27T02:55:36.499Z,0.00
2022-08-27T02:56:11.851Z,0.00
2022-08-27T02:56:47.148Z,0.00
2022-08-27T02:57:22.468Z,0.00
2022-08-27T02:57:57.500Z,0.00
2022-08-27T02:58:33.020Z,0.00
2022-08-27T02:59:08.137Z,0.00
2022-08-27T02:59:43.454Z,0.00
2022-08-27T03:00:18.930Z,0.00
2022-08-27T03:00:54.439Z,0.00
2022-08-27T03:01:29.718Z,0.00
2022-08-27T03:02:04.939Z,0.00
2022-08-27T03:02:39.895Z,0.00
2022-08-27T03:03:15.214Z,0.00
2022-08-27T03:03:50.725Z,0.00
2022-08-27T03:04:25.988Z,0.00
2022-08-27T03:05:01.211Z,0.00
2022-08-27T03:05:36.522Z,0.00
2022-08-27T03:06:11.857Z,0.00
2022-08-27T03:06:47.107Z,0.00
2022-08-27T03:07:22.349Z,0.00
2022-08-27T03:07:57.489Z,0.00
2022-08-27T03:08:32.692Z,0.00
2022-08-27T03:09:07.783Z,0.00
2022-08-27T03:09:42.901Z,0.00
2022-08-27T03:10:18.223Z,0.00
2022-08-27T03:10:53.638Z,0.00
2022-08-27T03:11:28.681Z,0.00
2022-08-27T03:12:03.976Z,0.00
2022-08-27T03:12:39.208Z,0.00
2022-08-27T03:13:14.302Z,0.00
2022-08-27T03:13:49.390Z,0.00
2022-08-27T03:14:24.913Z,0.00
2022-08-27T03:15:00.139Z,0.00
2022-08-27T03:15:35.081Z,0.00
2022-08-27T03:16:10.085Z,0.00
2022-08-27T03:16:45.588Z,0.00
2022-08-27T03:17:20.934Z,0.00
2022-08-27T03:17:55.940Z,0.00
2022-08-27T03:18:31.242Z,0.00
2022-08-27T03:19:06.425Z,0.00
2022-08-27T03:19:41.662Z,0.00
2022-08-27T03:20:16.849Z,0.00
2022-08-27T03:20:52.261Z,0.00
2022-08-27T03:21:27.584Z,0.00
2022-08-27T03:22:02.886Z,0.00
2022-08-27T03:22:38.213Z,0.00
2022-08-27T03:23:13.859Z,0.00
2022-08-27T03:23:49.140Z,0.00
2022-08-27T03:24:24.646Z,0.00
2022-08-27T03:24:59.768Z,0.00
2022-08-27T03:25:34.991Z,0.00
2022-08-27T03:26:10.094Z,0.00
2022-08-27T03:26:53.741Z,0.00
2022-08-27T03:27:20.475Z,0.00
2022-08-27T03:27:55.805Z,0.00
2022-08-27T03:28:31.229Z,0.00
2022-08-27T03:29:06.613Z,0.00
2022-08-27T03:29:41.940Z,0.00
2022-08-27T03:30:17.285Z,0.00
2022-08-27T03:30:52.911Z,0.00
2022-08-27T03:31:28.412Z,0.00
2022-08-27T03:32:03.779Z,0.00
2022-08-27T03:32:39.211Z,0.00
2022-08-27T03:33:14.874Z,0.00
2022-08-27T03:33:50.180Z,0.00
2022-08-27T03:34:25.900Z,0.00
2022-08-27T03:35:01.130Z,0.00
2022-08-27T03:35:36.256Z,0.00
2022-08-27T03:36:11.462Z,0.00
2022-08-27T03:36:46.911Z,0.00
2022-08-27T03:37:21.758Z,0.00
2022-08-27T03:37:56.968Z,0.00
2022-08-27T03:38:32.299Z,0.00
2022-08-27T03:39:07.695Z,0.00
2022-08-27T03:39:42.627Z,0.00
2022-08-27T03:40:18.089Z,0.00
2022-08-27T03:40:53.655Z,0.00
2022-08-27T03:41:54.246Z,0.00
2022-08-27T03:42:04.181Z,0.00
2022-08-27T03:42:39.594Z,0.00
2022-08-27T03:43:14.993Z,0.00
2022-08-27T03:43:50.443Z,0.00
2022-08-27T03:44:25.798Z,0.00
2022-08-27T03:45:01.206Z,0.00
2022-08-27T03:45:56.626Z,0.00
2022-08-27T03:46:12.203Z,0.00
2022-08-27T03:46:47.498Z,0.00
2022-08-27T03:47:22.474Z,0.00
2022-08-27T03:47:57.811Z,0.00
2022-08-27T03:48:33.072Z,0.00
2022-08-27T03:49:08.280Z,0.00
2022-08-27T03:49:43.412Z,0.00
2022-08-27T03:50:18.635Z,0.00
2022-08-27T03:50:53.957Z,0.00
2022-08-27T03:51:29.321Z,0.00
2022-08-27T03:52:04.436Z,0.00
2022-08-27T03:52:39.811Z,0.00
2022-08-27T03:53:15.141Z,0.00
2022-08-27T03:53:50.562Z,0.00
2022-08-27T03:54:25.564Z,0.00
2022-08-27T03:55:00.910Z,0.00
2022-08-27T03:55:36.140Z,0.00
2022-08-27T03:56:11.274Z,0.00
2022-08-27T03:56:46.437Z,0.00
2022-08-27T03:57:21.475Z,0.00
2022-08-27T03:57:56.805Z,0.00
2022-08-27T03:58:31.929Z,0.00
2022-08-27T03:59:07.477Z,0.00
2022-08-27T03:59:42.567Z,0.00
2022-08-27T04:00:17.663Z,0.00
2022-08-27T04:00:53.172Z,0.00
2022-08-27T04:01:28.733Z,0.00
2022-08-27T04:02:04.029Z,0.00
2022-08-27T04:02:39.197Z,0.00
2022-08-27T04:03:14.582Z,0.00
2022-08-27T04:03:49.845Z,0.00
2022-08-27T04:04:25.153Z,0.00
2022-08-27T04:05:00.675Z,0.00
2022-08-27T04:05:35.863Z,0.00
2022-08-27T04:06:11.270Z,0.00
2022-08-27T04:06:46.795Z,0.00
2022-08-27T04:07:22.411Z,0.00
2022-08-27T04:07:57.553Z,0.00
2022-08-27T04:08:32.901Z,0.00
2022-08-27T04:09:08.172Z,0.00
2022-08-27T04:09:43.625Z,0.00
2022-08-27T04:10:19.056Z,0.00
2022-08-27T04:10:54.199Z,0.00
2022-08-27T04:11:29.465Z,0.00
2022-08-27T04:12:04.715Z,0.00
2022-08-27T04:12:40.117Z,0.00
2022-08-27T04:13:15.456Z,0.00
2022-08-27T04:13:50.782Z,0.00
2022-08-27T04:14:27.114Z,0.00
2022-08-27T04:15:08.573Z,0.00
2022-08-27T04:15:43.822Z,0.00
2022-08-27T04:16:19.215Z,0.00
2022-08-27T04:16:54.625Z,0.00
2022-08-27T04:17:29.919Z,0.00
2022-08-27T04:18:05.447Z,0.00
2022-08-27T04:18:40.676Z,0.00
2022-08-27T04:19:15.870Z,0.00
2022-08-27T04:19:50.701Z,0.00
2022-08-27T04:20:35.045Z,0.00
2022-08-27T04:21:00.927Z,4.00
2022-08-27T04:21:36.055Z,4.00
2022-08-27T04:22:11.496Z,4.00
2022-08-27T04:22:46.619Z,4.00
2022-08-27T04:23:21.742Z,4.00
2022-08-27T04:23:57.268Z,4.00
2022-08-27T04:24:32.684Z,4.00
2022-08-27T04:25:10.520Z,4.00
2022-08-27T04:25:43.415Z,0.00
2022-08-27T04:26:18.804Z,4.00
2022-08-27T04:26:54.042Z,4.00
2022-08-27T04:27:29.238Z,4.00
2022-08-27T04:28:04.548Z,4.00
2022-08-27T04:28:39.781Z,4.00
2022-08-27T04:29:15.075Z,8.00
2022-08-27T04:29:50.312Z,8.00
2022-08-27T04:30:25.732Z,8.00
2022-08-27T04:31:01.260Z,4.00
2022-08-27T04:31:36.592Z,4.00
2022-08-27T04:32:11.549Z,4.00
2022-08-27T04:32:46.985Z,8.00
2022-08-27T04:33:22.702Z,8.00
2022-08-27T04:33:58.015Z,8.00
2022-08-27T04:34:33.405Z,8.00
2022-08-27T04:35:08.738Z,8.00
2022-08-27T04:35:43.859Z,8.00
2022-08-27T04:36:19.218Z,8.00
2022-08-27T04:36:54.556Z,12.00
2022-08-27T04:37:29.948Z,8.00
2022-08-27T04:38:05.269Z,12.00
2022-08-27T04:38:40.292Z,12.00
2022-08-27T04:39:15.756Z,12.00
2022-08-27T04:39:51.378Z,16.00
2022-08-27T04:40:26.865Z,12.00
2022-08-27T04:41:02.127Z,12.00
2022-08-27T04:41:37.433Z,16.00
2022-08-27T04:42:12.670Z,16.00
2022-08-27T04:42:47.970Z,16.00
2022-08-27T04:43:23.597Z,20.00
2022-08-27T04:43:59.002Z,16.00
2022-08-27T04:44:34.094Z,16.00
2022-08-27T04:45:09.211Z,20.00
2022-08-27T04:45:44.397Z,20.00
2022-08-27T04:46:19.785Z,20.00
2022-08-27T04:46:54.974Z,20.00
2022-08-27T04:47:30.063Z,20.00
2022-08-27T04:48:05.582Z,20.00
2022-08-27T04:48:41.005Z,24.00
2022-08-27T04:49:16.146Z,24.00
2022-08-27T04:49:51.469Z,24.00
2022-08-27T04:50:27.014Z,24.00
2022-08-27T04:51:02.425Z,24.00
2022-08-27T04:51:37.646Z,24.00
2022-08-27T04:52:13.067Z,24.00
2022-08-27T04:52:48.568Z,24.00
2022-08-27T04:53:23.798Z,28.00
2022-08-27T04:54:00.920Z,28.00
2022-08-27T04:54:34.352Z,28.00
2022-08-27T04:55:09.659Z,28.00
2022-08-27T04:55:45.062Z,28.00
2022-08-27T04:56:20.236Z,28.00
2022-08-27T04:56:55.608Z,28.00
2022-08-27T04:57:31.261Z,28.00
2022-08-27T04:58:06.367Z,28.00
2022-08-27T04:58:41.480Z,32.00
2022-08-27T04:59:16.713Z,32.00
2022-08-27T04:59:51.994Z,32.00
2022-08-27T05:00:27.334Z,32.00
2022-08-27T05:01:02.542Z,36.00
2022-08-27T05:01:37.931Z,36.00
2022-08-27T05:02:12.871Z,36.00
2022-08-27T05:02:48.156Z,40.00
2022-08-27T05:03:23.255Z,40.00
2022-08-27T05:03:58.378Z,40.00
2022-08-27T05:04:33.484Z,40.00
2022-08-27T05:05:09.802Z,40.00
2022-08-27T05:05:44.317Z,40.00
2022-08-27T05:06:19.532Z,44.00
2022-08-27T05:06:54.978Z,44.00
2022-08-27T05:07:30.165Z,44.00
2022-08-27T05:08:05.000Z,44.00
2022-08-27T05:08:40.209Z,44.00
2022-08-27T05:09:15.428Z,44.00
2022-08-27T05:09:50.529Z,44.00
2022-08-27T05:10:25.735Z,44.00
2022-08-27T05:11:01.054Z,48.00
2022-08-27T05:11:36.580Z,48.00
2022-08-27T05:12:11.677Z,48.00
2022-08-27T05:12:46.780Z,52.00
2022-08-27T05:13:22.390Z,52.00
2022-08-27T05:13:57.822Z,56.00
2022-08-27T05:14:33.028Z,52.00
2022-08-27T05:15:08.355Z,56.00
2022-08-27T05:15:43.599Z,56.00
2022-08-27T05:16:19.142Z,60.00
2022-08-27T05:16:54.228Z,64.00
2022-08-27T05:17:29.539Z,64.00
2022-08-27T05:18:04.904Z,64.00
2022-08-27T05:18:48.409Z,68.00
2022-08-27T05:19:15.485Z,68.00
2022-08-27T05:19:50.787Z,72.00
2022-08-27T05:20:25.986Z,72.00
2022-08-27T05:21:01.401Z,76.00
2022-08-27T05:21:36.802Z,76.00
2022-08-27T05:22:11.695Z,72.00
2022-08-27T05:22:47.007Z,72.00
2022-08-27T05:23:22.123Z,80.00
2022-08-27T05:23:57.334Z,80.00
2022-08-27T05:24:32.833Z,80.00
2022-08-27T05:25:08.135Z,76.00
2022-08-27T05:25:43.328Z,76.00
2022-08-27T05:26:18.741Z,80.00
2022-08-27T05:26:53.670Z,80.00
2022-08-27T05:27:29.176Z,80.00
2022-08-27T05:28:04.610Z,88.00
2022-08-27T05:28:39.698Z,92.00
2022-08-27T05:29:15.323Z,100.00
2022-08-27T05:29:50.632Z,100.00
2022-08-27T05:30:25.984Z,108.00
2022-08-27T05:31:01.251Z,112.00
2022-08-27T05:31:36.565Z,120.00
2022-08-27T05:32:11.564Z,124.00
2022-08-27T05:32:46.951Z,128.00
2022-08-27T05:33:22.107Z,128.00
2022-08-27T05:33:57.841Z,128.00
2022-08-27T05:34:32.270Z,124.00
2022-08-27T05:35:07.569Z,128.00
2022-08-27T05:35:42.660Z,128.00
2022-08-27T05:36:17.971Z,128.00
2022-08-27T05:36:53.488Z,132.00
2022-08-27T05:37:28.801Z,132.00
2022-08-27T05:38:04.193Z,128.00
2022-08-27T05:38:39.319Z,120.00
2022-08-27T05:39:14.429Z,116.00
2022-08-27T05:39:49.535Z,112.00
2022-08-27T05:40:24.961Z,112.00
2022-08-27T05:41:00.336Z,108.00
2022-08-27T05:41:35.555Z,112.00
2022-08-27T05:42:10.838Z,120.00
2022-08-27T05:42:49.242Z,124.00
2022-08-27T05:43:21.756Z,132.00
2022-08-27T05:43:56.942Z,140.00
2022-08-27T05:44:47.061Z,152.00
2022-08-27T05:45:07.395Z,164.00
2022-08-27T05:45:42.685Z,172.00
2022-08-27T05:46:17.821Z,176.00
2022-08-27T05:46:53.214Z,180.00
2022-08-27T05:47:28.812Z,180.00
2022-08-27T05:48:03.867Z,184.00
2022-08-27T05:48:39.132Z,184.00
2022-08-27T05:49:14.546Z,188.00
2022-08-27T05:49:49.657Z,192.00
2022-08-27T05:50:25.141Z,196.00
2022-08-27T05:51:00.454Z,196.00
2022-08-27T05:51:35.863Z,196.00
2022-08-27T05:52:10.970Z,204.00
2022-08-27T05:52:46.463Z,208.00
2022-08-27T05:53:21.879Z,212.00
2022-08-27T05:53:57.167Z,216.00
2022-08-27T05:54:32.493Z,216.00
2022-08-27T05:55:07.799Z,220.00
2022-08-27T05:55:42.901Z,228.00
2022-08-27T05:56:18.107Z,232.00
2022-08-27T05:56:53.331Z,240.00
2022-08-27T05:57:28.457Z,244.00
2022-08-27T05:58:03.918Z,240.00
2022-08-27T05:58:39.168Z,236.00
2022-08-27T05:59:14.482Z,236.00
2022-08-27T05:59:49.663Z,240.00
2022-08-27T06:00:24.983Z,244.00
2022-08-27T06:01:03.501Z,248.00
2022-08-27T06:01:35.399Z,248.00
2022-08-27T06:02:10.731Z,256.00
2022-08-27T06:02:45.941Z,260.00
2022-08-27T06:03:21.514Z,264.00
2022-08-27T06:03:56.935Z,260.00
2022-08-27T06:04:32.162Z,252.00
2022-08-27T06:05:07.273Z,244.00
2022-08-27T06:05:42.722Z,236.00
2022-08-27T06:06:18.153Z,236.00
2022-08-27T06:06:53.360Z,232.00
2022-08-27T06:07:28.672Z,228.00
2022-08-27T06:08:04.183Z,220.00
2022-08-27T06:08:39.497Z,216.00
2022-08-27T06:09:14.810Z,220.00
2022-08-27T06:09:49.800Z,228.00
2022-08-27T06:10:24.915Z,236.00
2022-08-27T06:11:00.020Z,244.00
2022-08-27T06:11:35.066Z,248.00
2022-08-27T06:12:10.075Z,260.00
2022-08-27T06:12:45.389Z,268.00
2022-08-27T06:13:20.377Z,276.00
2022-08-27T06:13:55.668Z,284.00
2022-08-27T06:14:30.876Z,292.00
2022-08-27T06:15:06.284Z,300.00
2022-08-27T06:15:41.521Z,300.00
2022-08-27T06:16:16.839Z,300.00
2022-08-27T06:16:51.917Z,304.00
2022-08-27T06:17:27.137Z,308.00
2022-08-27T06:18:02.331Z,320.00
2022-08-27T06:18:37.540Z,328.00
2022-08-27T06:19:12.848Z,340.00
2022-08-27T06:19:48.060Z,352.00
2022-08-27T06:20:23.256Z,372.00
2022-08-27T06:20:58.560Z,384.00
2022-08-27T06:21:33.876Z,400.00
2022-08-27T06:22:10.336Z,420.00
2022-08-27T06:22:44.119Z,436.00
2022-08-27T06:23:19.336Z,456.00
2022-08-27T06:23:55.034Z,476.00
2022-08-27T06:24:30.440Z,500.00
2022-08-27T06:25:05.759Z,520.00
2022-08-27T06:25:40.960Z,532.00
2022-08-27T06:26:16.343Z,548.00
2022-08-27T06:26:51.674Z,568.00
2022-08-27T06:27:26.787Z,572.00
2022-08-27T06:28:02.003Z,572.00
2022-08-27T06:28:37.113Z,584.00
2022-08-27T06:29:12.220Z,588.00
2022-08-27T06:29:47.222Z,596.00
2022-08-27T06:30:22.442Z,588.00
2022-08-27T06:30:57.620Z,572.00
2022-08-27T06:31:33.207Z,548.00
2022-08-27T06:32:08.136Z,536.00
2022-08-27T06:32:43.033Z,528.00
2022-08-27T06:33:18.038Z,532.00
2022-08-27T06:33:53.036Z,536.00
2022-08-27T06:34:28.350Z,548.00
2022-08-27T06:35:03.559Z,560.00
2022-08-27T06:35:38.765Z,580.00
2022-08-27T06:36:14.197Z,588.00
2022-08-27T06:36:49.529Z,588.00
2022-08-27T06:37:24.558Z,604.00
2022-08-27T06:37:59.651Z,612.00
2022-08-27T06:38:34.848Z,620.00
2022-08-27T06:39:10.046Z,636.00
2022-08-27T06:39:45.452Z,656.00
2022-08-27T06:40:20.734Z,680.00
2022-08-27T06:40:56.083Z,700.00
2022-08-27T06:41:31.304Z,704.00
2022-08-27T06:42:06.633Z,700.00
2022-08-27T06:42:42.228Z,692.00
2022-08-27T06:43:18.667Z,692.00
2022-08-27T06:43:52.350Z,712.00
2022-08-27T06:44:27.560Z,740.00
2022-08-27T06:45:02.873Z,776.00
2022-08-27T06:45:37.997Z,840.00
2022-08-27T06:46:13.344Z,904.00
2022-08-27T06:46:48.932Z,952.00
2022-08-27T06:47:24.279Z,976.00
2022-08-27T06:47:59.362Z,980.00
2022-08-27T06:48:34.766Z,992.00
2022-08-27T06:49:10.108Z,1016.00
2022-08-27T06:49:46.398Z,992.00
2022-08-27T06:50:24.244Z,984.00
2022-08-27T06:50:56.223Z,1004.00
2022-08-27T06:51:31.573Z,1040.00
2022-08-27T06:52:06.704Z,1096.00
2022-08-27T06:52:41.910Z,1192.00
2022-08-27T06:53:16.940Z,1296.00
2022-08-27T06:53:52.249Z,1400.00
2022-08-27T06:54:27.373Z,1472.00
2022-08-27T06:55:02.684Z,1560.00
2022-08-27T06:55:37.895Z,1608.00
2022-08-27T06:56:13.328Z,1640.00
2022-08-27T06:56:48.647Z,1692.00
2022-08-27T06:57:23.864Z,1764.00
2022-08-27T06:57:58.970Z,1752.00
2022-08-27T06:58:35.033Z,1712.00
2022-08-27T06:59:11.603Z,1708.00
2022-08-27T06:59:45.461Z,1680.00
2022-08-27T07:00:20.818Z,1648.00
2022-08-27T07:00:56.030Z,1684.00
2022-08-27T07:01:31.437Z,1748.00
2022-08-27T07:02:07.145Z,1752.00
2022-08-27T07:02:42.380Z,1776.00
2022-08-27T07:03:17.672Z,1804.00
2022-08-27T07:03:52.877Z,1872.00
2022-08-27T07:04:28.098Z,2000.00
2022-08-27T07:05:03.411Z,2072.00
2022-08-27T07:05:38.750Z,2072.00
2022-08-27T07:06:14.065Z,2088.00
2022-08-27T07:06:49.281Z,2100.00
2022-08-27T07:07:28.052Z,2080.00
2022-08-27T07:07:59.488Z,2012.00
2022-08-27T07:08:34.707Z,1992.00
2022-08-27T07:09:09.954Z,2012.00
2022-08-27T07:09:45.027Z,2052.00
2022-08-27T07:10:20.763Z,2080.00
2022-08-27T07:10:55.962Z,2092.00
2022-08-27T07:11:31.199Z,2100.00
2022-08-27T07:12:06.535Z,2196.00
2022-08-27T07:12:41.742Z,2284.00
2022-08-27T07:13:17.071Z,2316.00
2022-08-27T07:13:52.171Z,2364.00
2022-08-27T07:14:27.396Z,2396.00
2022-08-27T07:15:02.806Z,2420.00
2022-08-27T07:15:37.917Z,2368.00
2022-08-27T07:16:13.132Z,2316.00
2022-08-27T07:16:48.354Z,2280.00
2022-08-27T07:17:23.710Z,2240.00
2022-08-27T07:17:58.810Z,2200.00
2022-08-27T07:18:34.367Z,2156.00
2022-08-27T07:19:09.587Z,2240.00
2022-08-27T07:19:44.988Z,2332.00
2022-08-27T07:20:20.125Z,2344.00
2022-08-27T07:20:55.445Z,2336.00
2022-08-27T07:21:30.880Z,2352.00
2022-08-27T07:22:06.170Z,2388.00
2022-08-27T07:22:41.815Z,2460.00
2022-08-27T07:23:17.246Z,2580.00
2022-08-27T07:23:52.156Z,2788.00
2022-08-27T07:24:27.670Z,2912.00
2022-08-27T07:25:02.951Z,2924.00
2022-08-27T07:25:38.107Z,2928.00
2022-08-27T07:26:13.644Z,3012.00
2022-08-27T07:26:48.868Z,3024.00
2022-08-27T07:27:23.894Z,3104.00
2022-08-27T07:27:59.205Z,3244.00
2022-08-27T07:28:34.573Z,3300.00
2022-08-27T07:29:10.048Z,3308.00
2022-08-27T07:29:45.086Z,3344.00
2022-08-27T07:30:20.103Z,3328.00
2022-08-27T07:30:55.148Z,3356.00
2022-08-27T07:31:30.439Z,3392.00
2022-08-27T07:32:05.557Z,3392.00
2022-08-27T07:32:40.874Z,3608.00
2022-08-27T07:33:16.200Z,3752.00
2022-08-27T07:33:53.169Z,3608.00
2022-08-27T07:34:26.830Z,3684.00
2022-08-27T07:35:02.245Z,3856.00
2022-08-27T07:35:37.447Z,3900.00
2022-08-27T07:36:12.655Z,3952.00
2022-08-27T07:36:47.898Z,3988.00
2022-08-27T07:37:23.015Z,3936.00
2022-08-27T07:37:58.416Z,3844.00